sensor_id;sensor_type;location;lat;lon;timestamp;P1;durP1;ratioP1;P2;durP2;ratioP2
46266;SDS011;31998;48.798;15.066;2022-08-04T00:05:04;5.30;;;5.10;;
46266;SDS011;31998;48.798;15.066;2022-08-04T00:07:41;2.17;;;2.17;;
46266;SDS011;31998;48.798;15.066;2022-08-04T00:10:16;3.70;;;3.40;;
46266;SDS011;31998;48.798;15.066;2022-08-04T00:12:46;4.50;;;4.40;;
46266;SDS011;31998;48.798;15.066;2022-08-04T00:15:14;2.33;;;1.97;;
46266;SDS011;31998;48.798;15.066;2022-08-04T00:17:44;2.73;;;2.53;;
46266;SDS011;31998;48.798;15.066;2022-08-04T00:20:15;9.37;;;4.57;;
46266;SDS011;31998;48.798;15.066;2022-08-04T00:22:43;3.30;;;3.20;;
46266;SDS011;31998;48.798;15.066;2022-08-04T00:25:11;4.10;;;3.90;;
46266;SDS011;31998;48.798;15.066;2022-08-04T00:27:36;5.80;;;5.30;;
46266;SDS011;31998;48.798;15.066;2022-08-04T00:30:03;6.70;;;3.57;;
46266;SDS011;31998;48.798;15.066;2022-08-04T00:32:29;3.23;;;3.00;;
46266;SDS011;31998;48.798;15.066;2022-08-04T00:34:58;2.80;;;2.70;;
46266;SDS011;31998;48.798;15.066;2022-08-04T00:37:25;4.97;;;3.53;;
46266;SDS011;31998;48.798;15.066;2022-08-04T00:39:54;3.90;;;3.57;;
46266;SDS011;31998;48.798;15.066;2022-08-04T00:42:40;5.77;;;3.47;;
46266;SDS011;31998;48.798;15.066;2022-08-04T00:48:09;2.83;;;2.53;;
46266;SDS011;31998;48.798;15.066;2022-08-04T00:50:44;1.30;;;1.30;;
46266;SDS011;31998;48.798;15.066;2022-08-04T01:01:27;4.53;;;3.60;;
46266;SDS011;31998;48.798;15.066;2022-08-04T01:04:15;3.40;;;3.03;;
46266;SDS011;31998;48.798;15.066;2022-08-04T01:07:04;9.30;;;3.40;;
46266;SDS011;31998;48.798;15.066;2022-08-04T01:17:42;1.37;;;1.07;;
46266;SDS011;31998;48.798;15.066;2022-08-04T01:20:16;2.70;;;1.30;;
46266;SDS011;31998;48.798;15.066;2022-08-04T01:28:27;12.40;;;3.10;;
46266;SDS011;31998;48.798;15.066;2022-08-04T01:31:11;6.00;;;5.67;;
46266;SDS011;31998;48.798;15.066;2022-08-04T01:33:45;4.43;;;3.93;;
46266;SDS011;31998;48.798;15.066;2022-08-04T01:36:13;4.47;;;3.90;;
46266;SDS011;31998;48.798;15.066;2022-08-04T01:38:39;4.00;;;3.70;;
46266;SDS011;31998;48.798;15.066;2022-08-04T01:41:08;4.10;;;3.70;;
46266;SDS011;31998;48.798;15.066;2022-08-04T01:43:39;3.20;;;3.10;;
46266;SDS011;31998;48.798;15.066;2022-08-04T01:46:08;3.80;;;3.70;;
46266;SDS011;31998;48.798;15.066;2022-08-04T01:48:37;2.67;;;2.67;;
46266;SDS011;31998;48.798;15.066;2022-08-04T01:51:04;6.37;;;6.07;;
46266;SDS011;31998;48.798;15.066;2022-08-04T01:53:32;510.57;;;15.80;;
46266;SDS011;31998;48.798;15.066;2022-08-04T01:56:03;5.27;;;4.33;;
46266;SDS011;31998;48.798;15.066;2022-08-04T01:58:33;6.00;;;3.50;;
46266;SDS011;31998;48.798;15.066;2022-08-04T02:01:07;4.03;;;3.70;;
46266;SDS011;31998;48.798;15.066;2022-08-04T02:03:35;2.70;;;2.60;;
46266;SDS011;31998;48.798;15.066;2022-08-04T02:06:17;2.40;;;1.90;;
46266;SDS011;31998;48.798;15.066;2022-08-04T02:08:50;3.37;;;3.17;;
46266;SDS011;31998;48.798;15.066;2022-08-04T02:11:27;4.93;;;3.03;;
46266;SDS011;31998;48.798;15.066;2022-08-04T02:14:16;5.23;;;3.33;;
46266;SDS011;31998;48.798;15.066;2022-08-04T02:17:12;7.80;;;4.10;;
46266;SDS011;31998;48.798;15.066;2022-08-04T02:22:33;3.63;;;2.60;;
46266;SDS011;31998;48.798;15.066;2022-08-04T02:25:07;4.10;;;3.90;;
46266;SDS011;31998;48.798;15.066;2022-08-04T02:27:48;2.00;;;2.00;;
46266;SDS011;31998;48.798;15.066;2022-08-04T02:30:20;3.60;;;3.50;;
46266;SDS011;31998;48.798;15.066;2022-08-04T02:32:51;1.50;;;1.50;;
46266;SDS011;31998;48.798;15.066;2022-08-04T02:35:25;2.67;;;2.53;;
46266;SDS011;31998;48.798;15.066;2022-08-04T02:37:57;4.37;;;3.10;;
46266;SDS011;31998;48.798;15.066;2022-08-04T02:40:44;4.10;;;3.53;;
46266;SDS011;31998;48.798;15.066;2022-08-04T02:43:11;3.77;;;3.67;;
46266;SDS011;31998;48.798;15.066;2022-08-04T02:45:40;10.10;;;5.90;;
46266;SDS011;31998;48.798;15.066;2022-08-04T02:48:07;5.83;;;5.63;;
46266;SDS011;31998;48.798;15.066;2022-08-04T02:50:34;87.60;;;5.50;;
46266;SDS011;31998;48.798;15.066;2022-08-04T02:53:02;3.40;;;3.30;;
46266;SDS011;31998;48.798;15.066;2022-08-04T02:55:28;5.03;;;3.40;;
46266;SDS011;31998;48.798;15.066;2022-08-04T02:57:56;3.93;;;3.60;;
46266;SDS011;31998;48.798;15.066;2022-08-04T03:00:22;3.87;;;3.67;;
46266;SDS011;31998;48.798;15.066;2022-08-04T03:14:26;5.90;;;2.27;;
46266;SDS011;31998;48.798;15.066;2022-08-04T03:20:09;1.20;;;1.20;;
46266;SDS011;31998;48.798;15.066;2022-08-04T03:31:55;2.70;;;2.70;;
46266;SDS011;31998;48.798;15.066;2022-08-04T03:34:53;2.63;;;2.63;;
46266;SDS011;31998;48.798;15.066;2022-08-04T03:40:39;1.40;;;1.40;;
46266;SDS011;31998;48.798;15.066;2022-08-04T03:51:42;2.13;;;2.03;;
46266;SDS011;31998;48.798;15.066;2022-08-04T04:00:18;3.00;;;2.90;;
46266;SDS011;31998;48.798;15.066;2022-08-04T04:05:54;2.30;;;2.20;;
46266;SDS011;31998;48.798;15.066;2022-08-04T04:08:48;4.87;;;4.57;;
46266;SDS011;31998;48.798;15.066;2022-08-04T04:30:29;4.00;;;3.80;;
46266;SDS011;31998;48.798;15.066;2022-08-04T04:42:06;4.13;;;3.93;;
46266;SDS011;31998;48.798;15.066;2022-08-04T04:55:03;3.93;;;3.70;;
46266;SDS011;31998;48.798;15.066;2022-08-04T04:57:44;4.33;;;4.23;;
46266;SDS011;31998;48.798;15.066;2022-08-04T05:00:12;4.43;;;4.30;;
46266;SDS011;31998;48.798;15.066;2022-08-04T05:02:52;8.17;;;4.00;;
46266;SDS011;31998;48.798;15.066;2022-08-04T05:08:46;9.10;;;5.87;;
46266;SDS011;31998;48.798;15.066;2022-08-04T05:14:05;5.57;;;4.80;;
46266;SDS011;31998;48.798;15.066;2022-08-04T05:16:35;5.27;;;5.07;;
46266;SDS011;31998;48.798;15.066;2022-08-04T05:19:12;5.80;;;5.57;;
46266;SDS011;31998;48.798;15.066;2022-08-04T05:22:01;6.80;;;6.40;;
46266;SDS011;31998;48.798;15.066;2022-08-04T05:24:31;6.27;;;5.90;;
46266;SDS011;31998;48.798;15.066;2022-08-04T05:27:02;7.40;;;6.80;;
46266;SDS011;31998;48.798;15.066;2022-08-04T05:29:36;7.50;;;7.03;;
46266;SDS011;31998;48.798;15.066;2022-08-04T05:32:07;6.87;;;6.30;;
46266;SDS011;31998;48.798;15.066;2022-08-04T05:34:40;5.87;;;5.47;;
46266;SDS011;31998;48.798;15.066;2022-08-04T05:37:08;7.87;;;7.20;;
46266;SDS011;31998;48.798;15.066;2022-08-04T05:39:41;7.33;;;6.93;;
46266;SDS011;31998;48.798;15.066;2022-08-04T05:42:10;6.03;;;5.73;;
46266;SDS011;31998;48.798;15.066;2022-08-04T05:44:37;6.87;;;6.17;;
46266;SDS011;31998;48.798;15.066;2022-08-04T05:47:03;6.60;;;6.00;;
46266;SDS011;31998;48.798;15.066;2022-08-04T05:49:29;6.17;;;5.87;;
46266;SDS011;31998;48.798;15.066;2022-08-04T05:51:58;7.17;;;6.67;;
46266;SDS011;31998;48.798;15.066;2022-08-04T05:54:26;6.40;;;5.90;;
46266;SDS011;31998;48.798;15.066;2022-08-04T05:56:54;7.73;;;7.07;;
46266;SDS011;31998;48.798;15.066;2022-08-04T05:59:21;6.60;;;6.03;;
46266;SDS011;31998;48.798;15.066;2022-08-04T06:01:50;7.43;;;6.30;;
46266;SDS011;31998;48.798;15.066;2022-08-04T06:04:17;7.90;;;6.67;;
46266;SDS011;31998;48.798;15.066;2022-08-04T06:06:45;6.13;;;5.73;;
46266;SDS011;31998;48.798;15.066;2022-08-04T06:09:12;7.27;;;6.40;;
46266;SDS011;31998;48.798;15.066;2022-08-04T06:11:38;6.60;;;5.73;;
46266;SDS011;31998;48.798;15.066;2022-08-04T06:14:06;7.57;;;6.30;;
46266;SDS011;31998;48.798;15.066;2022-08-04T06:16:39;6.83;;;6.43;;
46266;SDS011;31998;48.798;15.066;2022-08-04T06:19:07;6.03;;;5.63;;
46266;SDS011;31998;48.798;15.066;2022-08-04T06:21:36;7.37;;;6.10;;
46266;SDS011;31998;48.798;15.066;2022-08-04T06:24:04;6.33;;;6.03;;
46266;SDS011;31998;48.798;15.066;2022-08-04T06:26:34;6.50;;;5.87;;
46266;SDS011;31998;48.798;15.066;2022-08-04T06:29:01;6.87;;;6.20;;
46266;SDS011;31998;48.798;15.066;2022-08-04T06:31:28;7.50;;;6.80;;
46266;SDS011;31998;48.798;15.066;2022-08-04T06:34:06;6.27;;;5.87;;
46266;SDS011;31998;48.798;15.066;2022-08-04T06:36:32;6.83;;;6.30;;
46266;SDS011;31998;48.798;15.066;2022-08-04T06:39:02;5.73;;;5.43;;
46266;SDS011;31998;48.798;15.066;2022-08-04T06:41:28;7.23;;;3.83;;
46266;SDS011;31998;48.798;15.066;2022-08-04T06:43:55;4.30;;;4.00;;
46266;SDS011;31998;48.798;15.066;2022-08-04T06:46:24;4.90;;;4.53;;
46266;SDS011;31998;48.798;15.066;2022-08-04T06:48:51;6.70;;;3.63;;
46266;SDS011;31998;48.798;15.066;2022-08-04T06:51:18;3.77;;;3.57;;
46266;SDS011;31998;48.798;15.066;2022-08-04T06:53:46;2.77;;;2.63;;
46266;SDS011;31998;48.798;15.066;2022-08-04T06:56:12;3.33;;;2.83;;
46266;SDS011;31998;48.798;15.066;2022-08-04T06:58:40;3.83;;;2.67;;
46266;SDS011;31998;48.798;15.066;2022-08-04T07:01:06;3.53;;;2.20;;
46266;SDS011;31998;48.798;15.066;2022-08-04T07:03:32;3.00;;;2.90;;
46266;SDS011;31998;48.798;15.066;2022-08-04T07:05:58;6.10;;;2.87;;
46266;SDS011;31998;48.798;15.066;2022-08-04T07:08:24;4.30;;;2.20;;
46266;SDS011;31998;48.798;15.066;2022-08-04T07:10:51;4.83;;;2.40;;
46266;SDS011;31998;48.798;15.066;2022-08-04T07:13:17;2.53;;;2.30;;
46266;SDS011;31998;48.798;15.066;2022-08-04T07:15:45;2.30;;;2.20;;
46266;SDS011;31998;48.798;15.066;2022-08-04T07:18:12;2.40;;;2.30;;
46266;SDS011;31998;48.798;15.066;2022-08-04T07:20:41;2.07;;;1.97;;
46266;SDS011;31998;48.798;15.066;2022-08-04T07:23:08;2.50;;;2.40;;
46266;SDS011;31998;48.798;15.066;2022-08-04T07:25:36;2.20;;;2.20;;
46266;SDS011;31998;48.798;15.066;2022-08-04T07:28:03;2.60;;;2.30;;
46266;SDS011;31998;48.798;15.066;2022-08-04T07:30:28;2.40;;;2.30;;
46266;SDS011;31998;48.798;15.066;2022-08-04T07:32:55;3.87;;;2.27;;
46266;SDS011;31998;48.798;15.066;2022-08-04T07:35:22;2.40;;;2.40;;
46266;SDS011;31998;48.798;15.066;2022-08-04T07:37:48;3.10;;;2.40;;
46266;SDS011;31998;48.798;15.066;2022-08-04T07:40:14;2.87;;;2.77;;
46266;SDS011;31998;48.798;15.066;2022-08-04T07:42:39;3.43;;;2.50;;
46266;SDS011;31998;48.798;15.066;2022-08-04T07:45:05;7.20;;;2.03;;
46266;SDS011;31998;48.798;15.066;2022-08-04T07:47:32;2.03;;;2.03;;
46266;SDS011;31998;48.798;15.066;2022-08-04T07:49:58;2.10;;;2.00;;
46266;SDS011;31998;48.798;15.066;2022-08-04T07:52:23;2.20;;;2.10;;
46266;SDS011;31998;48.798;15.066;2022-08-04T07:54:50;3.53;;;2.33;;
46266;SDS011;31998;48.798;15.066;2022-08-04T07:57:17;2.60;;;2.40;;
46266;SDS011;31998;48.798;15.066;2022-08-04T07:59:44;3.27;;;2.10;;
46266;SDS011;31998;48.798;15.066;2022-08-04T08:02:10;1.70;;;1.70;;
46266;SDS011;31998;48.798;15.066;2022-08-04T08:04:38;2.17;;;1.97;;
46266;SDS011;31998;48.798;15.066;2022-08-04T08:07:04;2.63;;;2.50;;
46266;SDS011;31998;48.798;15.066;2022-08-04T08:09:31;2.07;;;1.90;;
46266;SDS011;31998;48.798;15.066;2022-08-04T08:11:57;2.17;;;2.00;;
46266;SDS011;31998;48.798;15.066;2022-08-04T08:14:23;2.07;;;2.07;;
46266;SDS011;31998;48.798;15.066;2022-08-04T08:16:49;2.97;;;2.60;;
46266;SDS011;31998;48.798;15.066;2022-08-04T08:19:15;4.30;;;1.77;;
46266;SDS011;31998;48.798;15.066;2022-08-04T08:21:41;2.50;;;2.40;;
46266;SDS011;31998;48.798;15.066;2022-08-04T08:24:11;2.10;;;2.00;;
46266;SDS011;31998;48.798;15.066;2022-08-04T08:26:37;2.07;;;1.97;;
46266;SDS011;31998;48.798;15.066;2022-08-04T08:29:05;3.10;;;2.30;;
46266;SDS011;31998;48.798;15.066;2022-08-04T08:31:31;3.43;;;2.33;;
46266;SDS011;31998;48.798;15.066;2022-08-04T08:33:57;2.30;;;2.03;;
46266;SDS011;31998;48.798;15.066;2022-08-04T08:39:15;4.70;;;1.57;;
46266;SDS011;31998;48.798;15.066;2022-08-04T09:05:47;1.60;;;1.60;;
46266;SDS011;31998;48.798;15.066;2022-08-04T09:10:52;1.80;;;1.63;;
46266;SDS011;31998;48.798;15.066;2022-08-04T09:13:24;4.03;;;1.27;;
46266;SDS011;31998;48.798;15.066;2022-08-04T09:18:43;1.37;;;1.37;;
46266;SDS011;31998;48.798;15.066;2022-08-04T09:21:25;6.37;;;2.10;;
46266;SDS011;31998;48.798;15.066;2022-08-04T09:26:45;1.47;;;1.47;;
46266;SDS011;31998;48.798;15.066;2022-08-04T09:29:21;1.57;;;1.47;;
46266;SDS011;31998;48.798;15.066;2022-08-04T09:32:07;1.80;;;1.73;;
46266;SDS011;31998;48.798;15.066;2022-08-04T09:35:02;1.50;;;1.50;;
46266;SDS011;31998;48.798;15.066;2022-08-04T09:37:53;1.90;;;1.90;;
46266;SDS011;31998;48.798;15.066;2022-08-04T09:40:33;1.70;;;1.70;;
46266;SDS011;31998;48.798;15.066;2022-08-04T09:46:20;2.93;;;1.63;;
46266;SDS011;31998;48.798;15.066;2022-08-04T09:56:59;1.70;;;1.60;;
46266;SDS011;31998;48.798;15.066;2022-08-04T10:02:39;2.03;;;1.93;;
46266;SDS011;31998;48.798;15.066;2022-08-04T10:05:10;2.43;;;2.17;;
46266;SDS011;31998;48.798;15.066;2022-08-04T10:19:27;1.60;;;1.50;;
46266;SDS011;31998;48.798;15.066;2022-08-04T10:24:52;1.50;;;1.50;;
46266;SDS011;31998;48.798;15.066;2022-08-04T10:27:44;1.80;;;1.57;;
46266;SDS011;31998;48.798;15.066;2022-08-04T10:30:13;1.77;;;1.67;;
46266;SDS011;31998;48.798;15.066;2022-08-04T10:32:44;1.37;;;1.27;;
46266;SDS011;31998;48.798;15.066;2022-08-04T10:35:15;2.50;;;1.30;;
46266;SDS011;31998;48.798;15.066;2022-08-04T10:38:01;4.80;;;1.60;;
46266;SDS011;31998;48.798;15.066;2022-08-04T10:40:47;1.73;;;1.33;;
46266;SDS011;31998;48.798;15.066;2022-08-04T10:46:20;1.77;;;1.30;;
46266;SDS011;31998;48.798;15.066;2022-08-04T10:51:39;1.63;;;1.53;;
46266;SDS011;31998;48.798;15.066;2022-08-04T10:54:12;1.50;;;1.40;;
46266;SDS011;31998;48.798;15.066;2022-08-04T10:57:02;2.60;;;1.70;;
46266;SDS011;31998;48.798;15.066;2022-08-04T11:05:38;2.00;;;1.90;;
46266;SDS011;31998;48.798;15.066;2022-08-04T11:08:25;2.80;;;1.40;;
46266;SDS011;31998;48.798;15.066;2022-08-04T11:10:58;1.77;;;1.17;;
46266;SDS011;31998;48.798;15.066;2022-08-04T11:13:33;6.20;;;1.30;;
46266;SDS011;31998;48.798;15.066;2022-08-04T11:16:08;1.40;;;1.40;;
46266;SDS011;31998;48.798;15.066;2022-08-04T11:22:05;1.37;;;1.33;;
46266;SDS011;31998;48.798;15.066;2022-08-04T11:24:44;3.60;;;1.30;;
46266;SDS011;31998;48.798;15.066;2022-08-04T11:27:15;1.50;;;1.50;;
46266;SDS011;31998;48.798;15.066;2022-08-04T11:30:00;1.20;;;1.20;;
46266;SDS011;31998;48.798;15.066;2022-08-04T11:32:36;2.53;;;1.47;;
46266;SDS011;31998;48.798;15.066;2022-08-04T11:35:11;1.60;;;1.50;;
46266;SDS011;31998;48.798;15.066;2022-08-04T11:37:45;6.20;;;1.50;;
46266;SDS011;31998;48.798;15.066;2022-08-04T11:40:23;7.97;;;1.37;;
46266;SDS011;31998;48.798;15.066;2022-08-04T11:43:00;1.37;;;1.33;;
46266;SDS011;31998;48.798;15.066;2022-08-04T11:45:40;1.30;;;1.30;;
46266;SDS011;31998;48.798;15.066;2022-08-04T11:48:40;1.13;;;1.13;;
46266;SDS011;31998;48.798;15.066;2022-08-04T11:51:13;1.13;;;1.13;;
46266;SDS011;31998;48.798;15.066;2022-08-04T11:53:41;1.73;;;1.20;;
46266;SDS011;31998;48.798;15.066;2022-08-04T11:56:11;6.47;;;1.60;;
46266;SDS011;31998;48.798;15.066;2022-08-04T11:58:39;1.53;;;1.20;;
46266;SDS011;31998;48.798;15.066;2022-08-04T12:06:31;1.37;;;1.37;;
46266;SDS011;31998;48.798;15.066;2022-08-04T12:09:06;3.40;;;1.40;;
46266;SDS011;31998;48.798;15.066;2022-08-04T12:14:32;1.30;;;1.30;;
46266;SDS011;31998;48.798;15.066;2022-08-04T12:17:03;3.60;;;1.40;;
46266;SDS011;31998;48.798;15.066;2022-08-04T12:19:35;1.13;;;1.13;;
46266;SDS011;31998;48.798;15.066;2022-08-04T12:22:23;1.10;;;1.10;;
46266;SDS011;31998;48.798;15.066;2022-08-04T12:24:57;1.47;;;1.37;;
46266;SDS011;31998;48.798;15.066;2022-08-04T12:27:28;1.13;;;1.13;;
46266;SDS011;31998;48.798;15.066;2022-08-04T12:29:57;1.37;;;1.27;;
46266;SDS011;31998;48.798;15.066;2022-08-04T12:32:28;1.70;;;1.00;;
46266;SDS011;31998;48.798;15.066;2022-08-04T12:38:04;2.30;;;1.20;;
46266;SDS011;31998;48.798;15.066;2022-08-04T12:43:38;2.50;;;1.40;;
46266;SDS011;31998;48.798;15.066;2022-08-04T12:46:08;2.63;;;1.20;;
46266;SDS011;31998;48.798;15.066;2022-08-04T12:48:35;1.60;;;1.50;;
46266;SDS011;31998;48.798;15.066;2022-08-04T12:51:02;0.87;;;0.87;;
46266;SDS011;31998;48.798;15.066;2022-08-04T12:53:29;2.63;;;1.23;;
46266;SDS011;31998;48.798;15.066;2022-08-04T12:55:59;1.23;;;1.23;;
46266;SDS011;31998;48.798;15.066;2022-08-04T12:58:26;2.10;;;1.10;;
46266;SDS011;31998;48.798;15.066;2022-08-04T13:00:57;1.50;;;1.50;;
46266;SDS011;31998;48.798;15.066;2022-08-04T13:03:27;2.40;;;1.27;;
46266;SDS011;31998;48.798;15.066;2022-08-04T13:06:00;2.40;;;1.30;;
46266;SDS011;31998;48.798;15.066;2022-08-04T13:08:26;1.47;;;1.40;;
46266;SDS011;31998;48.798;15.066;2022-08-04T13:10:52;2.63;;;1.63;;
46266;SDS011;31998;48.798;15.066;2022-08-04T13:13:26;1.50;;;1.40;;
46266;SDS011;31998;48.798;15.066;2022-08-04T13:15:54;2.20;;;1.40;;
46266;SDS011;31998;48.798;15.066;2022-08-04T13:18:21;1.20;;;1.20;;
46266;SDS011;31998;48.798;15.066;2022-08-04T13:20:47;1.40;;;1.30;;
46266;SDS011;31998;48.798;15.066;2022-08-04T13:23:14;1.83;;;1.73;;
46266;SDS011;31998;48.798;15.066;2022-08-04T13:25:42;4.93;;;1.70;;
46266;SDS011;31998;48.798;15.066;2022-08-04T13:28:19;1.43;;;1.33;;
46266;SDS011;31998;48.798;15.066;2022-08-04T13:30:47;3.70;;;1.20;;
46266;SDS011;31998;48.798;15.066;2022-08-04T13:33:17;2.13;;;1.47;;
46266;SDS011;31998;48.798;15.066;2022-08-04T13:35:44;1.17;;;1.17;;
46266;SDS011;31998;48.798;15.066;2022-08-04T13:38:12;4.73;;;1.10;;
46266;SDS011;31998;48.798;15.066;2022-08-04T13:40:40;1.53;;;1.27;;
46266;SDS011;31998;48.798;15.066;2022-08-04T13:43:07;2.63;;;1.70;;
46266;SDS011;31998;48.798;15.066;2022-08-04T13:45:34;1.43;;;1.33;;
46266;SDS011;31998;48.798;15.066;2022-08-04T13:48:02;5.53;;;1.50;;
46266;SDS011;31998;48.798;15.066;2022-08-04T13:50:29;3.60;;;1.60;;
46266;SDS011;31998;48.798;15.066;2022-08-04T13:52:58;2.10;;;1.23;;
46266;SDS011;31998;48.798;15.066;2022-08-04T13:55:32;3.13;;;2.10;;
46266;SDS011;31998;48.798;15.066;2022-08-04T13:58:09;3.43;;;1.60;;
46266;SDS011;31998;48.798;15.066;2022-08-04T14:00:53;1.40;;;1.40;;
46266;SDS011;31998;48.798;15.066;2022-08-04T14:03:33;1.30;;;1.13;;
46266;SDS011;31998;48.798;15.066;2022-08-04T14:08:31;1.53;;;1.53;;
46266;SDS011;31998;48.798;15.066;2022-08-04T14:11:00;1.73;;;1.67;;
46266;SDS011;31998;48.798;15.066;2022-08-04T14:13:29;1.30;;;1.30;;
46266;SDS011;31998;48.798;15.066;2022-08-04T14:15:56;1.33;;;1.33;;
46266;SDS011;31998;48.798;15.066;2022-08-04T14:18:26;1.80;;;1.70;;
46266;SDS011;31998;48.798;15.066;2022-08-04T14:23:24;1.77;;;1.67;;
46266;SDS011;31998;48.798;15.066;2022-08-04T14:25:51;1.37;;;1.37;;
46266;SDS011;31998;48.798;15.066;2022-08-04T14:28:29;1.37;;;1.37;;
46266;SDS011;31998;48.798;15.066;2022-08-04T14:31:17;1.80;;;1.70;;
46266;SDS011;31998;48.798;15.066;2022-08-04T14:33:43;4.67;;;2.00;;
46266;SDS011;31998;48.798;15.066;2022-08-04T14:36:11;2.07;;;1.97;;
46266;SDS011;31998;48.798;15.066;2022-08-04T14:41:11;1.70;;;1.40;;
46266;SDS011;31998;48.798;15.066;2022-08-04T14:43:56;1.87;;;1.63;;
46266;SDS011;31998;48.798;15.066;2022-08-04T14:46:24;3.40;;;1.73;;
46266;SDS011;31998;48.798;15.066;2022-08-04T14:51:28;5.70;;;1.40;;
46266;SDS011;31998;48.798;15.066;2022-08-04T14:53:58;1.43;;;1.33;;
46266;SDS011;31998;48.798;15.066;2022-08-04T14:56:24;1.50;;;1.50;;
46266;SDS011;31998;48.798;15.066;2022-08-04T14:58:57;5.93;;;1.60;;
46266;SDS011;31998;48.798;15.066;2022-08-04T15:01:24;1.97;;;1.27;;
46266;SDS011;31998;48.798;15.066;2022-08-04T15:03:51;1.63;;;1.63;;
46266;SDS011;31998;48.798;15.066;2022-08-04T15:06:19;2.00;;;1.90;;
46266;SDS011;31998;48.798;15.066;2022-08-04T15:08:46;1.87;;;1.77;;
46266;SDS011;31998;48.798;15.066;2022-08-04T15:11:13;1.40;;;1.40;;
46266;SDS011;31998;48.798;15.066;2022-08-04T15:13:39;5.90;;;1.70;;
46266;SDS011;31998;48.798;15.066;2022-08-04T15:16:04;2.73;;;1.97;;
46266;SDS011;31998;48.798;15.066;2022-08-04T15:18:30;2.00;;;1.90;;
46266;SDS011;31998;48.798;15.066;2022-08-04T15:20:58;1.43;;;1.43;;
46266;SDS011;31998;48.798;15.066;2022-08-04T15:23:26;1.40;;;1.40;;
46266;SDS011;31998;48.798;15.066;2022-08-04T15:25:52;1.73;;;1.63;;
46266;SDS011;31998;48.798;15.066;2022-08-04T15:28:22;6.30;;;1.97;;
46266;SDS011;31998;48.798;15.066;2022-08-04T15:30:51;1.77;;;1.60;;
46266;SDS011;31998;48.798;15.066;2022-08-04T15:33:18;1.57;;;1.57;;
46266;SDS011;31998;48.798;15.066;2022-08-04T15:35:49;1.83;;;1.77;;
46266;SDS011;31998;48.798;15.066;2022-08-04T15:38:30;3.17;;;1.70;;
46266;SDS011;31998;48.798;15.066;2022-08-04T15:41:09;1.40;;;1.40;;
46266;SDS011;31998;48.798;15.066;2022-08-04T15:49:20;2.10;;;2.00;;
46266;SDS011;31998;48.798;15.066;2022-08-04T15:51:55;1.90;;;1.80;;
46266;SDS011;31998;48.798;15.066;2022-08-04T15:54:24;4.53;;;1.80;;
46266;SDS011;31998;48.798;15.066;2022-08-04T15:56:49;2.17;;;2.07;;
46266;SDS011;31998;48.798;15.066;2022-08-04T15:59:16;2.67;;;1.70;;
46266;SDS011;31998;48.798;15.066;2022-08-04T16:02:37;1.53;;;1.43;;
46266;SDS011;31998;48.798;15.066;2022-08-04T16:13:06;5.50;;;1.67;;
46266;SDS011;31998;48.798;15.066;2022-08-04T16:15:42;1.50;;;1.40;;
46266;SDS011;31998;48.798;15.066;2022-08-04T16:21:06;1.30;;;1.30;;
46266;SDS011;31998;48.798;15.066;2022-08-04T16:34:38;1.60;;;1.50;;
46266;SDS011;31998;48.798;15.066;2022-08-04T16:37:07;1.43;;;1.43;;
46266;SDS011;31998;48.798;15.066;2022-08-04T16:39:34;1.83;;;1.83;;
46266;SDS011;31998;48.798;15.066;2022-08-04T16:42:26;3.40;;;1.43;;
46266;SDS011;31998;48.798;15.066;2022-08-04T16:45:10;1.53;;;1.43;;
46266;SDS011;31998;48.798;15.066;2022-08-04T16:50:12;5.47;;;1.60;;
46266;SDS011;31998;48.798;15.066;2022-08-04T16:52:42;1.70;;;1.60;;
46266;SDS011;31998;48.798;15.066;2022-08-04T16:55:10;1.80;;;1.30;;
46266;SDS011;31998;48.798;15.066;2022-08-04T16:57:36;2.10;;;1.67;;
46266;SDS011;31998;48.798;15.066;2022-08-04T17:00:03;1.60;;;1.60;;
46266;SDS011;31998;48.798;15.066;2022-08-04T17:02:29;2.70;;;1.80;;
46266;SDS011;31998;48.798;15.066;2022-08-04T17:04:55;1.50;;;1.50;;
46266;SDS011;31998;48.798;15.066;2022-08-04T17:07:20;2.13;;;1.93;;
46266;SDS011;31998;48.798;15.066;2022-08-04T17:09:49;1.90;;;1.80;;
46266;SDS011;31998;48.798;15.066;2022-08-04T17:12:15;14.73;;;2.03;;
46266;SDS011;31998;48.798;15.066;2022-08-04T17:14:40;2.90;;;1.90;;
46266;SDS011;31998;48.798;15.066;2022-08-04T17:17:06;2.00;;;1.90;;
46266;SDS011;31998;48.798;15.066;2022-08-04T17:19:31;2.70;;;2.50;;
46266;SDS011;31998;48.798;15.066;2022-08-04T17:22:01;3.50;;;1.93;;
46266;SDS011;31998;48.798;15.066;2022-08-04T17:24:28;9.30;;;2.00;;
46266;SDS011;31998;48.798;15.066;2022-08-04T17:26:54;3.07;;;2.17;;
46266;SDS011;31998;48.798;15.066;2022-08-04T17:29:22;2.27;;;2.17;;
46266;SDS011;31998;48.798;15.066;2022-08-04T17:31:50;2.47;;;2.23;;
46266;SDS011;31998;48.798;15.066;2022-08-04T17:34:15;9.50;;;2.00;;
46266;SDS011;31998;48.798;15.066;2022-08-04T17:36:45;2.30;;;2.20;;
46266;SDS011;31998;48.798;15.066;2022-08-04T17:39:13;2.70;;;2.50;;
46266;SDS011;31998;48.798;15.066;2022-08-04T17:41:40;2.33;;;2.13;;
46266;SDS011;31998;48.798;15.066;2022-08-04T17:44:06;5.73;;;1.93;;
46266;SDS011;31998;48.798;15.066;2022-08-04T17:48:58;2.70;;;2.50;;
46266;SDS011;31998;48.798;15.066;2022-08-04T17:51:45;2.20;;;2.00;;
46266;SDS011;31998;48.798;15.066;2022-08-04T17:54:15;4.77;;;2.80;;
46266;SDS011;31998;48.798;15.066;2022-08-04T17:56:45;1.90;;;1.80;;
46266;SDS011;31998;48.798;15.066;2022-08-04T17:59:15;4.20;;;1.80;;
46266;SDS011;31998;48.798;15.066;2022-08-04T18:06:53;2.33;;;2.23;;
46266;SDS011;31998;48.798;15.066;2022-08-04T18:14:21;5.23;;;2.33;;
46266;SDS011;31998;48.798;15.066;2022-08-04T18:16:47;19.07;;;2.70;;
46266;SDS011;31998;48.798;15.066;2022-08-04T18:19:13;2.40;;;2.23;;
46266;SDS011;31998;48.798;15.066;2022-08-04T18:21:40;3.37;;;2.60;;
46266;SDS011;31998;48.798;15.066;2022-08-04T18:24:06;3.63;;;2.50;;
46266;SDS011;31998;48.798;15.066;2022-08-04T18:26:31;2.87;;;2.67;;
46266;SDS011;31998;48.798;15.066;2022-08-04T18:28:57;10.33;;;2.80;;
46266;SDS011;31998;48.798;15.066;2022-08-04T18:31:22;5.90;;;2.50;;
46266;SDS011;31998;48.798;15.066;2022-08-04T18:33:48;6.33;;;3.13;;
46266;SDS011;31998;48.798;15.066;2022-08-04T18:36:13;2.77;;;2.67;;
46266;SDS011;31998;48.798;15.066;2022-08-04T18:38:39;16.53;;;2.80;;
46266;SDS011;31998;48.798;15.066;2022-08-04T18:41:04;7.03;;;3.10;;
46266;SDS011;31998;48.798;15.066;2022-08-04T18:43:30;2.80;;;2.70;;
46266;SDS011;31998;48.798;15.066;2022-08-04T18:45:55;2.87;;;2.77;;
46266;SDS011;31998;48.798;15.066;2022-08-04T18:48:21;5.40;;;3.10;;
46266;SDS011;31998;48.798;15.066;2022-08-04T18:50:46;2.93;;;2.73;;
46266;SDS011;31998;48.798;15.066;2022-08-04T18:53:13;2.57;;;2.47;;
46266;SDS011;31998;48.798;15.066;2022-08-04T18:55:39;6.53;;;2.40;;
46266;SDS011;31998;48.798;15.066;2022-08-04T18:58:04;2.93;;;2.83;;
46266;SDS011;31998;48.798;15.066;2022-08-04T19:00:30;3.33;;;3.23;;
46266;SDS011;31998;48.798;15.066;2022-08-04T19:02:55;3.47;;;3.17;;
46266;SDS011;31998;48.798;15.066;2022-08-04T19:05:21;4.20;;;3.20;;
46266;SDS011;31998;48.798;15.066;2022-08-04T19:07:46;6.07;;;3.10;;
46266;SDS011;31998;48.798;15.066;2022-08-04T19:10:11;3.57;;;3.03;;
46266;SDS011;31998;48.798;15.066;2022-08-04T19:12:37;2.70;;;2.60;;
46266;SDS011;31998;48.798;15.066;2022-08-04T19:15:02;3.53;;;3.40;;
46266;SDS011;31998;48.798;15.066;2022-08-04T19:17:28;4.10;;;2.97;;
46266;SDS011;31998;48.798;15.066;2022-08-04T19:19:55;3.20;;;2.90;;
46266;SDS011;31998;48.798;15.066;2022-08-04T19:22:20;4.20;;;3.40;;